sensor_id;sensor_type;location;lat;lon;timestamp;noise_LAeq;noise_LA_min;noise_LA_max;noise_LA01;noise_LA95
70740;Laerm;58330;51.888;11.052;2023-04-28T00:01:03;32.14;30.84;33.37;;
70740;Laerm;58330;51.888;11.052;2023-04-28T00:03:29;32.13;30.56;33.52;;
70740;Laerm;58330;51.888;11.052;2023-04-28T00:05:55;32.17;30.69;33.45;;
70740;Laerm;58330;51.888;11.052;2023-04-28T00:08:22;32.22;30.92;33.70;;
70740;Laerm;58330;51.888;11.052;2023-04-28T00:10:51;32.22;30.81;33.43;;
70740;Laerm;58330;51.888;11.052;2023-04-28T00:13:17;32.22;30.96;33.33;;
70740;Laerm;58330;51.888;11.052;2023-04-28T00:15:45;32.21;30.76;33.59;;
70740;Laerm;58330;51.888;11.052;2023-04-28T00:18:11;32.20;30.96;33.38;;
70740;Laerm;58330;51.888;11.052;2023-04-28T00:20:37;32.18;30.84;33.46;;
70740;Laerm;58330;51.888;11.052;2023-04-28T00:23:04;32.16;30.96;33.44;;
70740;Laerm;58330;51.888;11.052;2023-04-28T00:25:30;32.20;30.58;33.55;;
70740;Laerm;58330;51.888;11.052;2023-04-28T00:27:57;32.22;30.89;33.48;;
70740;Laerm;58330;51.888;11.052;2023-04-28T00:30:23;32.27;30.82;33.39;;
70740;Laerm;58330;51.888;11.052;2023-04-28T00:32:51;32.31;31.01;33.52;;
70740;Laerm;58330;51.888;11.052;2023-04-28T00:35:18;32.29;31.07;33.68;;
70740;Laerm;58330;51.888;11.052;2023-04-28T00:37:44;32.28;31.01;33.59;;
70740;Laerm;58330;51.888;11.052;2023-04-28T00:40:10;32.26;31.01;33.75;;
70740;Laerm;58330;51.888;11.052;2023-04-28T00:42:37;32.29;30.95;33.69;;
70740;Laerm;58330;51.888;11.052;2023-04-28T00:45:03;32.29;30.99;33.51;;
70740;Laerm;58330;51.888;11.052;2023-04-28T00:47:31;32.26;30.94;33.55;;
70740;Laerm;58330;51.888;11.052;2023-04-28T00:49:59;32.25;30.96;33.55;;
70740;Laerm;58330;51.888;11.052;2023-04-28T00:52:25;32.20;30.73;33.38;;
70740;Laerm;58330;51.888;11.052;2023-04-28T00:54:52;32.18;30.80;33.62;;
70740;Laerm;58330;51.888;11.052;2023-04-28T00:57:19;32.18;30.64;33.40;;
70740;Laerm;58330;51.888;11.052;2023-04-28T00:59:45;32.14;30.81;33.41;;
70740;Laerm;58330;51.888;11.052;2023-04-28T01:02:11;32.15;30.60;33.43;;
70740;Laerm;58330;51.888;11.052;2023-04-28T01:04:41;32.16;30.79;33.49;;
70740;Laerm;58330;51.888;11.052;2023-04-28T01:07:09;32.17;30.71;33.43;;
70740;Laerm;58330;51.888;11.052;2023-04-28T01:09:35;32.19;30.78;33.50;;
70740;Laerm;58330;51.888;11.052;2023-04-28T01:12:02;32.15;30.80;33.46;;
70740;Laerm;58330;51.888;11.052;2023-04-28T01:14:28;32.15;30.71;33.47;;
70740;Laerm;58330;51.888;11.052;2023-04-28T01:16:55;32.15;30.85;33.56;;
70740;Laerm;58330;51.888;11.052;2023-04-28T01:19:21;32.14;30.77;33.31;;
70740;Laerm;58330;51.888;11.052;2023-04-28T01:21:48;32.13;30.82;33.37;;
70740;Laerm;58330;51.888;11.052;2023-04-28T01:24:16;32.15;30.74;33.41;;
70740;Laerm;58330;51.888;11.052;2023-04-28T01:26:42;32.16;30.75;33.37;;
70740;Laerm;58330;51.888;11.052;2023-04-28T01:29:09;32.23;30.77;33.49;;
70740;Laerm;58330;51.888;11.052;2023-04-28T01:31:36;32.26;31.03;33.40;;
70740;Laerm;58330;51.888;11.052;2023-04-28T01:34:02;32.30;31.05;33.39;;
70740;Laerm;58330;51.888;11.052;2023-04-28T01:36:29;32.31;30.97;33.65;;
70740;Laerm;58330;51.888;11.052;2023-04-28T01:38:55;32.34;30.98;33.46;;
70740;Laerm;58330;51.888;11.052;2023-04-28T01:41:23;32.32;31.02;33.56;;
70740;Laerm;58330;51.888;11.052;2023-04-28T01:43:50;32.32;30.89;33.55;;
70740;Laerm;58330;51.888;11.052;2023-04-28T01:46:16;32.32;31.07;33.66;;
70740;Laerm;58330;51.888;11.052;2023-04-28T01:48:43;32.38;30.98;33.71;;
70740;Laerm;58330;51.888;11.052;2023-04-28T01:51:09;32.38;31.07;33.64;;
70740;Laerm;58330;51.888;11.052;2023-04-28T01:53:35;32.40;31.07;33.65;;
70740;Laerm;58330;51.888;11.052;2023-04-28T01:56:02;32.42;30.91;33.73;;
70740;Laerm;58330;51.888;11.052;2023-04-28T01:58:30;32.43;31.15;33.68;;
70740;Laerm;58330;51.888;11.052;2023-04-28T02:00:56;32.42;31.13;33.65;;
70740;Laerm;58330;51.888;11.052;2023-04-28T02:03:23;32.44;30.77;33.74;;
70740;Laerm;58330;51.888;11.052;2023-04-28T02:05:50;32.47;30.93;33.61;;
70740;Laerm;58330;51.888;11.052;2023-04-28T02:08:16;32.50;31.23;33.79;;
70740;Laerm;58330;51.888;11.052;2023-04-28T02:10:43;32.48;31.11;33.92;;
70740;Laerm;58330;51.888;11.052;2023-04-28T02:13:10;32.49;30.89;33.75;;
70740;Laerm;58330;51.888;11.052;2023-04-28T02:15:39;32.53;31.17;33.95;;
70740;Laerm;58330;51.888;11.052;2023-04-28T02:18:06;32.54;31.21;34.06;;
70740;Laerm;58330;51.888;11.052;2023-04-28T02:20:32;32.54;31.32;33.72;;
70740;Laerm;58330;51.888;11.052;2023-04-28T02:22:59;32.54;31.36;33.72;;
70740;Laerm;58330;51.888;11.052;2023-04-28T02:25:28;32.56;30.87;33.83;;
70740;Laerm;58330;51.888;11.052;2023-04-28T02:27:55;32.56;31.13;33.70;;
70740;Laerm;58330;51.888;11.052;2023-04-28T02:30:21;32.55;31.36;33.95;;
70740;Laerm;58330;51.888;11.052;2023-04-28T02:32:49;32.57;31.31;33.84;;
70740;Laerm;58330;51.888;11.052;2023-04-28T02:35:15;32.58;31.26;33.75;;
70740;Laerm;58330;51.888;11.052;2023-04-28T02:37:42;32.61;31.24;33.83;;
70740;Laerm;58330;51.888;11.052;2023-04-28T02:40:08;32.64;31.45;33.90;;
70740;Laerm;58330;51.888;11.052;2023-04-28T02:42:35;32.66;31.42;33.88;;
70740;Laerm;58330;51.888;11.052;2023-04-28T02:45:01;32.67;31.26;33.84;;
70740;Laerm;58330;51.888;11.052;2023-04-28T02:47:27;32.70;31.45;34.85;;
70740;Laerm;58330;51.888;11.052;2023-04-28T02:49:55;32.69;31.02;34.26;;
70740;Laerm;58330;51.888;11.052;2023-04-28T02:52:21;32.71;31.25;33.86;;
70740;Laerm;58330;51.888;11.052;2023-04-28T02:54:47;32.72;31.45;33.84;;
70740;Laerm;58330;51.888;11.052;2023-04-28T02:57:18;32.69;31.40;34.10;;
70740;Laerm;58330;51.888;11.052;2023-04-28T02:59:44;32.69;31.37;33.85;;
70740;Laerm;58330;51.888;11.052;2023-04-28T03:02:11;32.75;31.38;33.88;;
70740;Laerm;58330;51.888;11.052;2023-04-28T03:04:37;32.77;31.57;33.90;;
70740;Laerm;58330;51.888;11.052;2023-04-28T03:07:05;32.88;31.39;36.01;;
70740;Laerm;58330;51.888;11.052;2023-04-28T03:09:31;32.87;31.40;45.96;;
70740;Laerm;58330;51.888;11.052;2023-04-28T03:11:58;32.90;31.47;34.17;;
70740;Laerm;58330;51.888;11.052;2023-04-28T03:14:24;32.97;31.61;34.40;;
70740;Laerm;58330;51.888;11.052;2023-04-28T03:16:51;33.03;31.64;34.96;;
70740;Laerm;58330;51.888;11.052;2023-04-28T03:19:17;33.06;31.71;34.21;;
70740;Laerm;58330;51.888;11.052;2023-04-28T03:21:43;33.12;31.70;34.89;;
70740;Laerm;58330;51.888;11.052;2023-04-28T03:24:11;33.24;31.96;34.79;;
70740;Laerm;58330;51.888;11.052;2023-04-28T03:26:38;33.20;31.77;34.61;;
70740;Laerm;58330;51.888;11.052;2023-04-28T03:29:04;33.22;31.71;34.73;;
70740;Laerm;58330;51.888;11.052;2023-04-28T03:31:30;33.26;31.77;34.53;;
70740;Laerm;58330;51.888;11.052;2023-04-28T03:33:57;33.25;31.98;34.46;;
70740;Laerm;58330;51.888;11.052;2023-04-28T03:36:23;33.25;31.89;34.47;;
70740;Laerm;58330;51.888;11.052;2023-04-28T03:38:51;33.38;32.12;34.72;;
70740;Laerm;58330;51.888;11.052;2023-04-28T03:41:19;33.41;31.66;36.09;;
70740;Laerm;58330;51.888;11.052;2023-04-28T03:43:45;33.19;31.89;34.37;;
70740;Laerm;58330;51.888;11.052;2023-04-28T03:46:12;33.21;32.03;34.65;;
70740;Laerm;58330;51.888;11.052;2023-04-28T03:48:38;33.23;31.87;34.54;;
70740;Laerm;58330;51.888;11.052;2023-04-28T03:51:04;33.28;31.96;34.49;;
70740;Laerm;58330;51.888;11.052;2023-04-28T03:53:31;33.25;31.81;34.43;;
70740;Laerm;58330;51.888;11.052;2023-04-28T03:55:57;33.28;31.85;37.03;;
70740;Laerm;58330;51.888;11.052;2023-04-28T03:58:25;33.17;31.91;34.32;;
70740;Laerm;58330;51.888;11.052;2023-04-28T04:00:52;33.17;31.76;34.54;;
70740;Laerm;58330;51.888;11.052;2023-04-28T04:03:18;33.15;31.84;34.56;;
70740;Laerm;58330;51.888;11.052;2023-04-28T04:05:45;33.13;31.92;34.80;;
70740;Laerm;58330;51.888;11.052;2023-04-28T04:08:12;33.12;31.85;34.42;;
70740;Laerm;58330;51.888;11.052;2023-04-28T04:10:38;33.11;31.47;34.50;;
70740;Laerm;58330;51.888;11.052;2023-04-28T04:13:05;33.11;31.66;34.41;;
70740;Laerm;58330;51.888;11.052;2023-04-28T04:15:32;33.09;31.66;34.45;;
70740;Laerm;58330;51.888;11.052;2023-04-28T04:17:58;33.11;31.32;35.18;;
70740;Laerm;58330;51.888;11.052;2023-04-28T04:20:28;33.15;31.90;35.04;;
70740;Laerm;58330;51.888;11.052;2023-04-28T04:22:54;33.14;31.84;34.64;;
70740;Laerm;58330;51.888;11.052;2023-04-28T04:25:20;33.15;31.42;34.71;;
70740;Laerm;58330;51.888;11.052;2023-04-28T04:27:47;33.15;31.70;34.57;;
70740;Laerm;58330;51.888;11.052;2023-04-28T04:30:13;33.18;31.46;34.61;;
70740;Laerm;58330;51.888;11.052;2023-04-28T04:32:41;33.15;31.81;34.37;;
70740;Laerm;58330;51.888;11.052;2023-04-28T04:35:08;33.16;31.78;34.45;;
70740;Laerm;58330;51.888;11.052;2023-04-28T04:37:34;33.23;31.91;37.55;;
70740;Laerm;58330;51.888;11.052;2023-04-28T04:40:00;33.17;31.81;34.47;;
70740;Laerm;58330;51.888;11.052;2023-04-28T04:42:27;33.24;31.89;34.74;;
70740;Laerm;58330;51.888;11.052;2023-04-28T04:44:53;33.25;32.03;34.62;;
70740;Laerm;58330;51.888;11.052;2023-04-28T04:47:20;33.15;31.74;34.85;;
70740;Laerm;58330;51.888;11.052;2023-04-28T04:49:48;33.13;31.37;34.78;;
70740;Laerm;58330;51.888;11.052;2023-04-28T04:52:15;33.06;31.60;34.33;;
70740;Laerm;58330;51.888;11.052;2023-04-28T04:54:41;33.19;31.90;35.21;;
70740;Laerm;58330;51.888;11.052;2023-04-28T04:57:07;33.25;32.15;34.82;;
70740;Laerm;58330;51.888;11.052;2023-04-28T04:59:34;33.27;32.00;34.87;;
70740;Laerm;58330;51.888;11.052;2023-04-28T05:02:00;33.00;31.46;34.35;;
70740;Laerm;58330;51.888;11.052;2023-04-28T05:04:27;32.65;31.11;34.61;;
70740;Laerm;58330;51.888;11.052;2023-04-28T05:06:54;32.45;31.23;33.89;;
70740;Laerm;58330;51.888;11.052;2023-04-28T05:09:21;32.84;31.26;34.50;;
70740;Laerm;58330;51.888;11.052;2023-04-28T05:11:47;32.21;30.91;33.71;;
70740;Laerm;58330;51.888;11.052;2023-04-28T05:14:14;32.25;30.68;37.99;;
70740;Laerm;58330;51.888;11.052;2023-04-28T05:16:47;31.81;30.19;33.20;;
70740;Laerm;58330;51.888;11.052;2023-04-28T05:19:13;31.74;30.48;33.05;;
70740;Laerm;58330;51.888;11.052;2023-04-28T05:21:40;31.68;29.88;33.04;;
70740;Laerm;58330;51.888;11.052;2023-04-28T05:24:07;31.81;30.49;33.70;;
70740;Laerm;58330;51.888;11.052;2023-04-28T05:26:34;32.08;30.67;35.49;;
70740;Laerm;58330;51.888;11.052;2023-04-28T05:29:00;32.16;30.82;34.66;;
70740;Laerm;58330;51.888;11.052;2023-04-28T05:31:27;32.30;31.04;34.46;;
70740;Laerm;58330;51.888;11.052;2023-04-28T05:33:53;32.23;30.79;35.00;;
70740;Laerm;58330;51.888;11.052;2023-04-28T05:36:20;32.19;30.69;34.73;;
70740;Laerm;58330;51.888;11.052;2023-04-28T05:38:46;32.21;30.57;34.79;;
70740;Laerm;58330;51.888;11.052;2023-04-28T05:41:15;32.28;30.93;33.72;;
70740;Laerm;58330;51.888;11.052;2023-04-28T05:43:42;32.20;30.66;34.18;;
70740;Laerm;58330;51.888;11.052;2023-04-28T05:46:09;32.29;30.68;34.78;;
70740;Laerm;58330;51.888;11.052;2023-04-28T05:48:35;32.46;31.06;33.75;;
70740;Laerm;58330;51.888;11.052;2023-04-28T05:51:02;32.37;31.05;33.73;;
70740;Laerm;58330;51.888;11.052;2023-04-28T05:53:28;32.33;31.00;33.62;;
70740;Laerm;58330;51.888;11.052;2023-04-28T05:55:55;32.48;31.02;34.48;;
70740;Laerm;58330;51.888;11.052;2023-04-28T05:58:23;32.45;31.03;34.43;;
70740;Laerm;58330;51.888;11.052;2023-04-28T06:00:49;32.43;31.22;33.74;;
70740;Laerm;58330;51.888;11.052;2023-04-28T06:03:24;32.58;30.89;35.57;;
70740;Laerm;58330;51.888;11.052;2023-04-28T06:05:51;32.46;31.10;33.65;;
70740;Laerm;58330;51.888;11.052;2023-04-28T06:08:17;32.53;31.18;33.78;;
70740;Laerm;58330;51.888;11.052;2023-04-28T06:10:44;32.43;31.05;33.79;;
70740;Laerm;58330;51.888;11.052;2023-04-28T06:13:10;32.48;31.11;34.39;;
70740;Laerm;58330;51.888;11.052;2023-04-28T06:15:38;32.47;30.94;33.73;;
70740;Laerm;58330;51.888;11.052;2023-04-28T06:18:05;32.50;31.01;36.48;;
70740;Laerm;58330;51.888;11.052;2023-04-28T06:20:31;32.46;30.89;34.57;;
70740;Laerm;58330;51.888;11.052;2023-04-28T06:22:58;32.60;31.13;34.07;;
70740;Laerm;58330;51.888;11.052;2023-04-28T06:25:24;32.53;31.00;33.97;;
70740;Laerm;58330;51.888;11.052;2023-04-28T06:27:51;32.38;30.86;34.07;;
70740;Laerm;58330;51.888;11.052;2023-04-28T06:30:18;32.46;31.21;34.26;;
70740;Laerm;58330;51.888;11.052;2023-04-28T06:32:46;32.43;31.03;35.25;;
70740;Laerm;58330;51.888;11.052;2023-04-28T06:35:12;32.50;31.17;34.44;;
70740;Laerm;58330;51.888;11.052;2023-04-28T06:37:38;32.39;30.92;34.03;;
70740;Laerm;58330;51.888;11.052;2023-04-28T06:40:06;32.37;31.01;33.69;;
70740;Laerm;58330;51.888;11.052;2023-04-28T06:42:33;32.34;30.79;33.99;;
70740;Laerm;58330;51.888;11.052;2023-04-28T06:44:59;32.30;30.84;34.23;;
70740;Laerm;58330;51.888;11.052;2023-04-28T06:47:27;32.26;30.88;33.74;;
70740;Laerm;58330;51.888;11.052;2023-04-28T06:49:55;32.26;30.79;34.12;;
70740;Laerm;58330;51.888;11.052;2023-04-28T06:52:35;32.32;31.02;33.85;;
70740;Laerm;58330;51.888;11.052;2023-04-28T06:55:03;32.28;30.74;33.85;;
70740;Laerm;58330;51.888;11.052;2023-04-28T06:57:29;32.29;30.99;33.45;;
70740;Laerm;58330;51.888;11.052;2023-04-28T06:59:55;32.37;31.08;35.13;;
70740;Laerm;58330;51.888;11.052;2023-04-28T07:02:23;32.37;30.93;33.77;;
70740;Laerm;58330;51.888;11.052;2023-04-28T07:04:49;32.42;30.67;34.08;;
70740;Laerm;58330;51.888;11.052;2023-04-28T07:07:20;32.26;30.98;33.83;;
70740;Laerm;58330;51.888;11.052;2023-04-28T07:09:47;32.54;30.80;35.53;;
70740;Laerm;58330;51.888;11.052;2023-04-28T07:12:13;32.34;31.09;33.71;;
70740;Laerm;58330;51.888;11.052;2023-04-28T07:14:40;32.38;30.89;36.60;;
70740;Laerm;58330;51.888;11.052;2023-04-28T07:17:06;32.49;31.16;35.92;;
70740;Laerm;58330;51.888;11.052;2023-04-28T07:19:33;32.32;30.83;33.74;;
70740;Laerm;58330;51.888;11.052;2023-04-28T07:22:00;32.46;31.16;34.19;;
70740;Laerm;58330;51.888;11.052;2023-04-28T07:24:34;32.27;30.78;34.80;;
70740;Laerm;58330;51.888;11.052;2023-04-28T07:27:05;32.08;30.72;33.59;;
70740;Laerm;58330;51.888;11.052;2023-04-28T07:29:36;32.29;30.75;38.02;;
70740;Laerm;58330;51.888;11.052;2023-04-28T07:32:06;32.13;30.83;37.07;;
70740;Laerm;58330;51.888;11.052;2023-04-28T07:34:50;32.03;30.74;36.36;;
70740;Laerm;58330;51.888;11.052;2023-04-28T07:37:17;32.02;30.54;33.69;;
70740;Laerm;58330;51.888;11.052;2023-04-28T07:39:46;32.03;30.56;34.37;;
70740;Laerm;58330;51.888;11.052;2023-04-28T07:42:13;32.06;30.62;33.47;;
70740;Laerm;58330;51.888;11.052;2023-04-28T07:44:43;31.86;30.42;33.91;;
70740;Laerm;58330;51.888;11.052;2023-04-28T07:47:10;32.05;30.22;33.53;;
70740;Laerm;58330;51.888;11.052;2023-04-28T07:49:36;32.01;30.42;34.37;;
70740;Laerm;58330;51.888;11.052;2023-04-28T07:52:03;31.76;30.27;33.41;;
70740;Laerm;58330;51.888;11.052;2023-04-28T07:54:30;31.94;30.46;34.75;;
70740;Laerm;58330;51.888;11.052;2023-04-28T07:56:59;31.86;30.25;35.04;;
70740;Laerm;58330;51.888;11.052;2023-04-28T07:59:30;31.83;30.19;33.38;;
70740;Laerm;58330;51.888;11.052;2023-04-28T08:01:56;31.70;30.36;33.56;;
70740;Laerm;58330;51.888;11.052;2023-04-28T08:04:23;31.96;30.54;33.63;;
70740;Laerm;58330;51.888;11.052;2023-04-28T08:06:49;31.66;30.19;33.11;;
70740;Laerm;58330;51.888;11.052;2023-04-28T08:09:15;31.79;30.28;34.55;;
70740;Laerm;58330;51.888;11.052;2023-04-28T08:11:42;31.81;30.41;34.17;;
70740;Laerm;58330;51.888;11.052;2023-04-28T08:14:10;31.70;30.22;33.28;;
70740;Laerm;58330;51.888;11.052;2023-04-28T08:16:36;31.71;30.04;34.58;;
70740;Laerm;58330;51.888;11.052;2023-04-28T08:19:05;31.73;30.50;33.72;;
70740;Laerm;58330;51.888;11.052;2023-04-28T08:21:31;31.72;30.16;34.04;;
70740;Laerm;58330;51.888;11.052;2023-04-28T08:23:58;31.65;29.74;33.05;;
70740;Laerm;58330;51.888;11.052;2023-04-28T08:26:25;31.74;30.33;34.36;;
70740;Laerm;58330;51.888;11.052;2023-04-28T08:28:51;31.78;30.59;33.49;;
70740;Laerm;58330;51.888;11.052;2023-04-28T08:31:19;31.76;30.40;33.25;;
70740;Laerm;58330;51.888;11.052;2023-04-28T08:33:46;31.83;30.12;33.48;;
70740;Laerm;58330;51.888;11.052;2023-04-28T08:36:15;31.82;30.41;34.50;;
70740;Laerm;58330;51.888;11.052;2023-04-28T08:38:42;31.86;30.18;35.10;;
70740;Laerm;58330;51.888;11.052;2023-04-28T08:41:14;31.82;30.24;33.65;;
70740;Laerm;58330;51.888;11.052;2023-04-28T08:43:42;31.70;30.16;33.10;;
70740;Laerm;58330;51.888;11.052;2023-04-28T08:46:09;31.77;30.32;33.08;;
70740;Laerm;58330;51.888;11.052;2023-04-28T08:48:39;31.86;30.45;33.28;;
70740;Laerm;58330;51.888;11.052;2023-04-28T08:51:07;31.83;30.34;34.28;;
70740;Laerm;58330;51.888;11.052;2023-04-28T08:53:37;31.79;30.27;33.55;;
70740;Laerm;58330;51.888;11.052;2023-04-28T08:56:05;31.72;30.24;33.64;;
70740;Laerm;58330;51.888;11.052;2023-04-28T08:58:34;36.23;30.82;43.84;;
70740;Laerm;58330;51.888;11.052;2023-04-28T09:01:15;31.96;30.49;34.12;;
70740;Laerm;58330;51.888;11.052;2023-04-28T09:03:49;32.26;30.53;41.11;;
70740;Laerm;58330;51.888;11.052;2023-04-28T09:06:19;31.65;30.01;32.99;;
70740;Laerm;58330;51.888;11.052;2023-04-28T09:08:47;31.62;30.14;33.27;;
70740;Laerm;58330;51.888;11.052;2023-04-28T09:11:15;31.99;30.24;44.37;;
70740;Laerm;58330;51.888;11.052;2023-04-28T09:13:45;31.70;30.25;33.22;;
70740;Laerm;58330;51.888;11.052;2023-04-28T09:16:12;31.66;30.24;34.54;;
70740;Laerm;58330;51.888;11.052;2023-04-28T09:18:55;31.44;30.06;33.98;;
70740;Laerm;58330;51.888;11.052;2023-04-28T09:21:25;31.30;29.71;33.71;;
70740;Laerm;58330;51.888;11.052;2023-04-28T09:23:53;31.16;29.79;32.43;;
70740;Laerm;58330;51.888;11.052;2023-04-28T09:26:20;31.42;29.80;33.06;;
70740;Laerm;58330;51.888;11.052;2023-04-28T09:28:47;31.43;30.09;33.16;;
70740;Laerm;58330;51.888;11.052;2023-04-28T09:31:21;31.33;29.89;33.60;;
70740;Laerm;58330;51.888;11.052;2023-04-28T09:33:57;31.23;29.68;32.55;;
70740;Laerm;58330;51.888;11.052;2023-04-28T09:36:32;31.33;29.81;33.87;;
70740;Laerm;58330;51.888;11.052;2023-04-28T09:39:12;31.40;30.04;35.12;;
70740;Laerm;58330;51.888;11.052;2023-04-28T09:41:39;32.14;29.97;44.99;;
70740;Laerm;58330;51.888;11.052;2023-04-28T09:44:13;31.35;30.09;33.17;;
70740;Laerm;58330;51.888;11.052;2023-04-28T09:46:39;31.58;30.10;35.18;;
70740;Laerm;58330;51.888;11.052;2023-04-28T09:49:07;31.56;30.17;33.19;;
70740;Laerm;58330;51.888;11.052;2023-04-28T09:51:34;31.53;30.21;32.81;;
70740;Laerm;58330;51.888;11.052;2023-04-28T09:54:01;31.68;30.19;34.18;;
70740;Laerm;58330;51.888;11.052;2023-04-28T09:56:28;31.64;30.08;33.45;;
70740;Laerm;58330;51.888;11.052;2023-04-28T09:58:56;31.72;30.42;33.16;;
70740;Laerm;58330;51.888;11.052;2023-04-28T10:01:22;31.85;30.19;33.30;;
70740;Laerm;58330;51.888;11.052;2023-04-28T10:03:49;31.85;29.91;35.41;;
70740;Laerm;58330;51.888;11.052;2023-04-28T10:06:19;31.84;30.34;34.32;;
70740;Laerm;58330;51.888;11.052;2023-04-28T10:08:46;31.88;30.50;33.51;;
70740;Laerm;58330;51.888;11.052;2023-04-28T10:11:13;32.12;30.35;39.88;;
70740;Laerm;58330;51.888;11.052;2023-04-28T10:13:41;31.77;30.19;33.35;;
70740;Laerm;58330;51.888;11.052;2023-04-28T10:19:01;31.80;30.34;33.21;;
70740;Laerm;58330;51.888;11.052;2023-04-28T10:21:29;32.03;30.57;34.75;;
70740;Laerm;58330;51.888;11.052;2023-04-28T10:24:08;32.20;30.52;34.61;;
70740;Laerm;58330;51.888;11.052;2023-04-28T10:27:01;32.26;30.94;34.25;;
70740;Laerm;58330;51.888;11.052;2023-04-28T10:29:28;32.29;30.81;36.41;;
70740;Laerm;58330;51.888;11.052;2023-04-28T10:34:44;32.25;30.85;33.53;;
70740;Laerm;58330;51.888;11.052;2023-04-28T10:37:12;32.49;30.92;36.06;;
70740;Laerm;58330;51.888;11.052;2023-04-28T10:39:40;32.49;30.90;33.84;;
70740;Laerm;58330;51.888;11.052;2023-04-28T10:44:47;32.59;31.25;34.79;;
70740;Laerm;58330;51.888;11.052;2023-04-28T10:47:14;32.55;30.84;34.28;;
70740;Laerm;58330;51.888;11.052;2023-04-28T11:00:50;32.69;31.19;34.71;;
70740;Laerm;58330;51.888;11.052;2023-04-28T11:03:37;32.93;31.56;34.93;;
70740;Laerm;58330;51.888;11.052;2023-04-28T11:08:50;32.99;31.67;34.73;;
70740;Laerm;58330;51.888;11.052;2023-04-28T11:16:55;33.44;32.05;39.74;;
70740;Laerm;58330;51.888;11.052;2023-04-28T11:19:25;33.36;31.71;34.55;;
70740;Laerm;58330;51.888;11.052;2023-04-28T11:21:54;33.30;31.88;34.93;;
70740;Laerm;58330;51.888;11.052;2023-04-28T11:24:21;33.26;31.87;34.81;;
70740;Laerm;58330;51.888;11.052;2023-04-28T11:26:49;33.22;31.84;38.37;;
70740;Laerm;58330;51.888;11.052;2023-04-28T11:29:32;33.28;31.76;38.09;;
70740;Laerm;58330;51.888;11.052;2023-04-28T11:32:00;33.55;31.75;35.01;;
70740;Laerm;58330;51.888;11.052;2023-04-28T11:34:27;33.55;32.25;35.28;;
70740;Laerm;58330;51.888;11.052;2023-04-28T11:36:53;33.60;32.34;35.01;;
70740;Laerm;58330;51.888;11.052;2023-04-28T11:39:27;33.76;32.32;35.16;;
70740;Laerm;58330;51.888;11.052;2023-04-28T11:41:53;33.67;32.20;35.33;;
70740;Laerm;58330;51.888;11.052;2023-04-28T11:44:20;33.55;32.11;34.78;;
70740;Laerm;58330;51.888;11.052;2023-04-28T11:46:47;33.43;32.14;34.60;;
70740;Laerm;58330;51.888;11.052;2023-04-28T11:49:19;33.45;31.95;34.83;;
70740;Laerm;58330;51.888;11.052;2023-04-28T11:51:45;33.50;32.17;34.80;;
70740;Laerm;58330;51.888;11.052;2023-04-28T11:54:15;33.53;32.12;34.95;;
70740;Laerm;58330;51.888;11.052;2023-04-28T11:56:45;33.48;32.29;34.73;;
70740;Laerm;58330;51.888;11.052;2023-04-28T12:02:00;33.58;31.76;34.94;;
70740;Laerm;58330;51.888;11.052;2023-04-28T12:04:29;33.64;32.30;34.83;;
70740;Laerm;58330;51.888;11.052;2023-04-28T12:06:57;33.65;32.22;35.04;;
70740;Laerm;58330;51.888;11.052;2023-04-28T12:09:24;33.69;32.31;34.97;;
70740;Laerm;58330;51.888;11.052;2023-04-28T12:11:51;33.79;32.29;35.32;;
70740;Laerm;58330;51.888;11.052;2023-04-28T12:14:17;33.93;32.58;35.85;;
70740;Laerm;58330;51.888;11.052;2023-04-28T12:16:45;33.97;32.52;35.36;;
70740;Laerm;58330;51.888;11.052;2023-04-28T12:19:12;34.08;32.31;35.56;;
70740;Laerm;58330;51.888;11.052;2023-04-28T12:21:41;34.07;32.52;35.67;;
70740;Laerm;58330;51.888;11.052;2023-04-28T12:24:15;34.06;32.41;40.44;;
70740;Laerm;58330;51.888;11.052;2023-04-28T12:26:41;34.00;32.57;35.87;;
70740;Laerm;58330;51.888;11.052;2023-04-28T12:29:08;33.98;32.58;35.53;;
70740;Laerm;58330;51.888;11.052;2023-04-28T12:31:46;33.74;32.19;34.98;;
70740;Laerm;58330;51.888;11.052;2023-04-28T12:34:12;33.92;32.49;35.61;;
70740;Laerm;58330;51.888;11.052;2023-04-28T12:36:41;33.77;32.28;35.08;;
70740;Laerm;58330;51.888;11.052;2023-04-28T12:39:12;33.78;32.52;35.28;;
70740;Laerm;58330;51.888;11.052;2023-04-28T12:41:40;33.60;32.19;34.74;;
70740;Laerm;58330;51.888;11.052;2023-04-28T12:44:06;33.58;32.16;34.86;;
70740;Laerm;58330;51.888;11.052;2023-04-28T12:46:32;33.54;32.30;34.82;;
70740;Laerm;58330;51.888;11.052;2023-04-28T12:48:59;33.62;32.26;35.17;;
70740;Laerm;58330;51.888;11.052;2023-04-28T12:51:25;33.90;32.50;37.27;;
70740;Laerm;58330;51.888;11.052;2023-04-28T12:53:55;33.83;32.24;35.36;;
70740;Laerm;58330;51.888;11.052;2023-04-28T12:56:21;33.59;32.34;34.95;;
70740;Laerm;58330;51.888;11.052;2023-04-28T12:58:48;33.59;32.30;34.87;;
70740;Laerm;58330;51.888;11.052;2023-04-28T13:01:15;33.60;32.37;35.06;;
70740;Laerm;58330;51.888;11.052;2023-04-28T13:03:41;33.58;32.39;34.75;;
70740;Laerm;58330;51.888;11.052;2023-04-28T13:06:08;33.68;32.25;36.04;;
70740;Laerm;58330;51.888;11.052;2023-04-28T13:08:35;34.00;32.62;35.44;;
70740;Laerm;58330;51.888;11.052;2023-04-28T13:11:02;34.13;32.72;36.79;;
70740;Laerm;58330;51.888;11.052;2023-04-28T13:13:29;34.12;32.76;35.37;;
70740;Laerm;58330;51.888;11.052;2023-04-28T13:15:56;34.03;32.41;35.30;;
70740;Laerm;58330;51.888;11.052;2023-04-28T13:18:22;34.11;32.59;35.73;;
70740;Laerm;58330;51.888;11.052;2023-04-28T13:20:49;34.24;32.55;35.75;;
70740;Laerm;58330;51.888;11.052;2023-04-28T13:23:15;34.25;32.58;35.62;;
70740;Laerm;58330;51.888;11.052;2023-04-28T13:25:41;34.22;32.64;35.85;;
70740;Laerm;58330;51.888;11.052;2023-04-28T13:28:09;34.19;32.53;35.75;;
70740;Laerm;58330;51.888;11.052;2023-04-28T13:30:37;34.27;32.68;36.60;;
70740;Laerm;58330;51.888;11.052;2023-04-28T13:33:03;34.23;32.72;35.65;;
70740;Laerm;58330;51.888;11.052;2023-04-28T13:35:30;34.33;32.81;36.51;;
70740;Laerm;58330;51.888;11.052;2023-04-28T13:37:56;34.31;32.73;35.71;;
70740;Laerm;58330;51.888;11.052;2023-04-28T13:40:25;34.19;32.67;35.62;;
70740;Laerm;58330;51.888;11.052;2023-04-28T13:42:52;33.99;32.54;35.51;;
70740;Laerm;58330;51.888;11.052;2023-04-28T13:45:19;33.90;32.39;39.64;;
70740;Laerm;58330;51.888;11.052;2023-04-28T13:47:46;33.86;32.44;35.46;;
70740;Laerm;58330;51.888;11.052;2023-04-28T13:50:15;33.88;32.56;36.38;;
70740;Laerm;58330;51.888;11.052;2023-04-28T13:52:41;33.81;32.37;36.96;;
70740;Laerm;58330;51.888;11.052;2023-04-28T13:55:08;33.77;32.04;43.61;;
70740;Laerm;58330;51.888;11.052;2023-04-28T13:57:35;33.55;32.35;34.87;;
70740;Laerm;58330;51.888;11.052;2023-04-28T14:00:01;33.55;32.43;34.73;;
70740;Laerm;58330;51.888;11.052;2023-04-28T14:02:30;33.73;32.19;35.08;;
70740;Laerm;58330;51.888;11.052;2023-04-28T14:04:56;33.70;32.34;35.15;;